Time;durP1;ratioP1;P1;durP2;ratioP2;P2;SDS_P1;SDS_P2;PMS_P1;PMS_P2;Temp;Humidity;BMP_temperature;BMP_pressure;BME280_temperature;BME280_humidity;BME280_pressure;Samples;Min_cycle;Max_cycle;Signal;HPM_P1;HPM_P2
2023/08/01 00:00:03;;;;;;;1999.90;999.90;;;16.70;99.90;;;;;;5075533;28;20124;-71
2023/08/01 00:02:29;;;;;;;1999.90;999.90;;;16.60;99.90;;;;;;5074214;28;20860;-71
2023/08/01 00:04:54;;;;;;;1999.90;999.90;;;16.60;99.90;;;;;;5075358;28;20045;-72
2023/08/01 00:07:20;;;;;;;1999.90;999.90;;;16.60;99.90;;;;;;5075606;28;20369;-72
2023/08/01 00:09:45;;;;;;;1999.90;999.90;;;16.60;99.90;;;;;;5075287;28;20036;-71
2023/08/01 00:12:11;;;;;;;1999.90;999.90;;;16.60;99.90;;;;;;5075542;28;20037;-71
2023/08/01 00:14:36;;;;;;;1999.90;999.90;;;16.60;99.90;;;;;;5075175;28;20045;-72
2023/08/01 00:17:02;;;;;;;1999.90;999.90;;;16.60;99.90;;;;;;5075541;28;20029;-72
2023/08/01 00:19:28;;;;;;;1999.90;999.90;;;16.60;99.90;;;;;;5075116;28;20044;-71
2023/08/01 00:21:54;;;;;;;1999.90;999.90;;;16.60;99.90;;;;;;5073825;28;20043;-71
2023/08/01 00:24:19;;;;;;;1999.90;999.90;;;16.60;99.90;;;;;;5073739;28;20029;-71
2023/08/01 00:26:45;;;;;;;1999.90;999.90;;;16.60;99.90;;;;;;5075351;28;20469;-71
2023/08/01 00:29:10;;;;;;;1999.90;999.90;;;16.60;99.90;;;;;;5075380;28;20033;-71
2023/08/01 00:31:36;;;;;;;1999.90;999.90;;;16.60;99.90;;;;;;5074973;28;20033;-72
2023/08/01 00:34:01;;;;;;;1999.90;999.90;;;16.60;99.90;;;;;;5074949;28;20507;-71
2023/08/01 00:36:27;;;;;;;1999.90;999.90;;;16.60;99.90;;;;;;5074679;28;20041;-71
2023/08/01 00:38:53;;;;;;;1999.90;999.90;;;16.60;99.90;;;;;;5075317;28;20032;-71
2023/08/01 00:41:19;;;;;;;1999.90;999.90;;;16.60;99.90;;;;;;5074522;28;20045;-72
2023/08/01 00:43:44;;;;;;;1999.90;999.90;;;16.50;99.90;;;;;;5073602;28;20451;-71
2023/08/01 00:46:10;;;;;;;1999.90;999.90;;;16.60;99.90;;;;;;5073399;28;20083;-72
2023/08/01 00:48:35;;;;;;;1999.90;999.90;;;16.60;99.90;;;;;;5075014;28;20110;-71
2023/08/01 00:51:05;;;;;;;1999.90;999.90;;;16.50;99.90;;;;;;5074987;28;20068;-72
2023/08/01 00:53:31;;;;;;;1999.90;999.90;;;16.50;99.90;;;;;;5074857;28;20029;-72
2023/08/01 00:55:57;;;;;;;1999.90;999.90;;;16.50;99.90;;;;;;5074322;28;20049;-72
2023/08/01 00:58:23;;;;;;;1999.90;999.90;;;16.50;99.90;;;;;;5074897;28;20029;-72
2023/08/01 01:00:49;;;;;;;1999.90;999.90;;;16.50;99.90;;;;;;5074654;28;20041;-72
2023/08/01 01:03:15;;;;;;;1999.90;999.90;;;16.50;99.90;;;;;;5074923;28;20032;-71
2023/08/01 01:05:49;;;;;;;1999.90;999.90;;;16.50;99.90;;;;;;5074498;28;20408;-72
2023/08/01 01:08:15;;;;;;;1999.90;999.90;;;16.50;99.90;;;;;;5074694;28;20041;-72
2023/08/01 01:10:40;;;;;;;1999.90;999.90;;;16.50;99.90;;;;;;5072727;28;20506;-72
2023/08/01 01:13:06;;;;;;;1999.90;999.90;;;16.50;99.90;;;;;;5074363;28;20123;-72
2023/08/01 01:15:32;;;;;;;1999.90;999.90;;;16.50;99.90;;;;;;5074515;28;20378;-72
2023/08/01 01:17:58;;;;;;;1999.90;999.90;;;16.50;99.90;;;;;;5074633;28;20028;-72
2023/08/01 01:20:26;;;;;;;1999.90;999.90;;;16.50;99.90;;;;;;5072906;28;20484;-72
2023/08/01 01:22:53;;;;;;;1999.90;999.90;;;16.50;99.90;;;;;;5074558;28;20029;-72
2023/08/01 01:25:21;;;;;;;1999.90;999.90;;;16.50;99.90;;;;;;5074033;28;20041;-72
2023/08/01 01:27:49;;;;;;;1999.90;999.90;;;16.40;99.90;;;;;;5074551;28;20532;-72
2023/08/01 01:30:15;;;;;;;1999.90;999.90;;;16.50;99.90;;;;;;5074070;28;20075;-72
2023/08/01 01:32:41;;;;;;;1999.90;999.90;;;16.50;99.90;;;;;;5074219;28;20037;-72
2023/08/01 01:35:07;;;;;;;1999.90;999.90;;;16.50;99.90;;;;;;5073908;28;20041;-71
2023/08/01 01:37:32;;;;;;;1999.90;999.90;;;16.50;99.90;;;;;;5074322;28;20123;-72
2023/08/01 01:39:59;;;;;;;1999.90;999.90;;;16.50;99.90;;;;;;5073616;28;20037;-72
2023/08/01 01:42:25;;;;;;;1999.90;999.90;;;16.50;99.90;;;;;;5073938;28;20029;-72
2023/08/01 01:44:50;;;;;;;1999.90;999.90;;;16.50;99.90;;;;;;5073923;28;20033;-71
2023/08/01 01:47:17;;;;;;;1999.90;999.90;;;16.50;99.90;;;;;;5074298;28;20490;-71
2023/08/01 01:49:43;;;;;;;1999.90;999.90;;;16.40;99.90;;;;;;5074097;28;20041;-72
2023/08/01 01:52:08;;;;;;;1999.90;999.90;;;16.50;99.90;;;;;;5074103;28;20029;-71
2023/08/01 01:54:34;;;;;;;1999.90;999.90;;;16.50;99.90;;;;;;5073964;28;20110;-71
2023/08/01 01:56:59;;;;;;;1999.90;999.90;;;16.50;99.90;;;;;;5073963;28;20546;-72
2023/08/01 01:59:25;;;;;;;1999.90;999.90;;;16.50;99.90;;;;;;5074082;28;20041;-72
2023/08/01 02:01:50;;;;;;;1999.90;999.90;;;16.40;99.90;;;;;;5073714;28;20519;-71
2023/08/01 02:04:16;;;;;;;1999.90;999.90;;;16.40;99.90;;;;;;5073760;28;20037;-72
2023/08/01 02:06:41;;;;;;;1999.90;999.90;;;16.50;99.90;;;;;;5074021;28;20029;-71
2023/08/01 02:09:07;;;;;;;1999.90;999.90;;;16.40;99.90;;;;;;5072479;28;20029;-71
2023/08/01 02:11:32;;;;;;;1999.90;999.90;;;16.40;99.90;;;;;;5073785;28;20036;-72
2023/08/01 02:13:58;;;;;;;1999.90;999.90;;;16.40;99.90;;;;;;5073658;28;20118;-73
2023/08/01 02:16:23;;;;;;;1999.90;999.90;;;16.40;99.90;;;;;;5073989;28;20124;-72
2023/08/01 02:18:49;;;;;;;1999.90;999.90;;;16.50;99.90;;;;;;5074074;28;20040;-72
2023/08/01 02:21:14;;;;;;;1999.90;999.90;;;16.40;99.90;;;;;;5073624;28;20045;-72
2023/08/01 02:23:40;;;;;;;1999.90;999.90;;;16.40;99.90;;;;;;5073801;28;20033;-72
2023/08/01 02:26:08;;;;;;;1999.90;999.90;;;16.40;99.90;;;;;;5073685;28;20088;-71
2023/08/01 02:28:33;;;;;;;1999.90;999.90;;;16.40;99.90;;;;;;5073729;28;20135;-72
2023/08/01 02:30:59;;;;;;;1999.90;999.90;;;16.40;99.90;;;;;;5073476;28;20100;-71
2023/08/01 02:33:24;;;;;;;1999.90;999.90;;;16.40;99.90;;;;;;5073786;28;20033;-72
2023/08/01 02:35:50;;;;;;;1999.90;999.90;;;16.30;99.90;;;;;;5072957;28;20033;-72
2023/08/01 02:38:15;;;;;;;1999.90;999.90;;;16.40;99.90;;;;;;5072016;28;20025;-72
2023/08/01 02:40:41;;;;;;;1999.90;999.90;;;16.30;99.90;;;;;;5072964;28;20048;-71
2023/08/01 02:43:06;;;;;;;1999.90;999.90;;;16.40;99.90;;;;;;5072113;28;20112;-72
2023/08/01 02:45:32;;;;;;;1999.90;999.90;;;16.40;99.90;;;;;;5076271;28;20036;-72
2023/08/01 02:47:57;;;;;;;1999.90;999.90;;;16.40;99.90;;;;;;5076720;28;20029;-72
2023/08/01 02:50:23;;;;;;;1999.90;999.90;;;16.40;99.90;;;;;;5076773;28;20048;-72
2023/08/01 02:52:48;;;;;;;1999.90;999.90;;;16.40;99.90;;;;;;5076919;28;20041;-72
2023/08/01 02:55:14;;;;;;;1999.90;999.90;;;16.50;99.90;;;;;;5076501;28;20036;-72
2023/08/01 02:57:39;;;;;;;1999.90;999.90;;;16.40;99.90;;;;;;5076797;28;20032;-72
2023/08/01 03:00:06;;;;;;;1999.90;999.90;;;16.50;99.90;;;;;;5076192;28;20123;-72
2023/08/01 03:02:32;;;;;;;1999.90;999.90;;;16.50;99.90;;;;;;5076759;28;20112;-72
2023/08/01 03:04:57;;;;;;;1999.90;999.90;;;16.50;99.90;;;;;;5076349;28;20029;-71
2023/08/01 03:07:23;;;;;;;1999.90;999.90;;;16.50;99.90;;;;;;5076375;28;20029;-72
2023/08/01 03:09:49;;;;;;;1999.90;999.90;;;16.50;99.90;;;;;;5076364;28;20040;-72
2023/08/01 03:12:14;;;;;;;1999.90;999.90;;;16.40;99.90;;;;;;5076722;28;20109;-72
2023/08/01 03:14:41;;;;;;;1999.90;999.90;;;16.40;99.90;;;;;;5074449;28;20037;-71
2023/08/01 03:17:08;;;;;;;1999.90;999.90;;;16.40;99.90;;;;;;5076465;28;20036;-72
2023/08/01 03:19:33;;;;;;;1999.90;999.90;;;16.40;99.90;;;;;;5076560;28;20029;-71
2023/08/01 03:22:00;;;;;;;1999.90;999.90;;;16.40;99.90;;;;;;5076227;28;20129;-72
2023/08/01 03:24:25;;;;;;;1999.90;999.90;;;16.40;99.90;;;;;;5076057;28;20613;-72
2023/08/01 03:26:51;;;;;;;1999.90;999.90;;;16.40;99.90;;;;;;5076561;28;20118;-71
2023/08/01 03:29:16;;;;;;;1999.90;999.90;;;16.40;99.90;;;;;;5076173;28;20078;-72
2023/08/01 03:31:42;;;;;;;1999.90;999.90;;;16.40;99.90;;;;;;5075927;28;20095;-72
2023/08/01 03:34:08;;;;;;;1999.90;999.90;;;16.40;99.90;;;;;;5075991;28;20476;-72
2023/08/01 03:36:34;;;;;;;1999.90;999.90;;;16.40;99.90;;;;;;5076185;28;20191;-72
2023/08/01 03:39:00;;;;;;;1999.90;999.90;;;16.40;99.90;;;;;;5076145;28;20079;-72
2023/08/01 03:41:25;;;;;;;1999.90;999.90;;;16.40;99.90;;;;;;5075661;28;20456;-72
2023/08/01 03:43:51;;;;;;;1999.90;999.90;;;16.40;99.90;;;;;;5075821;28;20033;-73
2023/08/01 03:46:17;;;;;;;1999.90;999.90;;;16.40;99.90;;;;;;5076275;28;20037;-72
2023/08/01 03:48:43;;;;;;;1999.90;999.90;;;16.40;99.90;;;;;;5076263;28;20033;-70
2023/08/01 03:51:09;;;;;;;1999.90;999.90;;;16.40;99.90;;;;;;5076036;28;20037;-71
2023/08/01 03:53:34;;;;;;;1999.90;999.90;;;16.40;99.90;;;;;;5076129;28;20403;-70
2023/08/01 03:56:00;;;;;;;1999.90;999.90;;;16.40;99.90;;;;;;5075728;28;20033;-71
2023/08/01 03:58:25;;;;;;;1999.90;999.90;;;16.40;99.90;;;;;;5074578;28;20062;-71
2023/08/01 04:00:51;;;;;;;1999.90;999.90;;;16.40;99.90;;;;;;5075296;28;20044;-70
2023/08/01 04:03:17;;;;;;;1999.90;999.90;;;16.40;99.90;;;;;;5074406;28;20495;-71
2023/08/01 04:05:42;;;;;;;1999.90;999.90;;;16.40;99.90;;;;;;5075633;28;20083;-70
2023/08/01 04:08:08;;;;;;;1999.90;999.90;;;16.40;99.90;;;;;;5074305;28;20369;-72
2023/08/01 04:10:33;;;;;;;1999.90;999.90;;;16.40;99.90;;;;;;5075604;28;20116;-70
2023/08/01 04:12:59;;;;;;;1999.90;999.90;;;16.30;99.90;;;;;;5075913;28;20036;-71
2023/08/01 04:15:25;;;;;;;1999.90;999.90;;;16.40;99.90;;;;;;5075568;28;20061;-70
2023/08/01 04:17:50;;;;;;;1999.90;999.90;;;16.40;99.90;;;;;;5075696;28;20041;-70
2023/08/01 04:20:16;;;;;;;1999.90;999.90;;;16.50;99.90;;;;;;5075026;28;20103;-70
2023/08/01 04:22:41;;;;;;;1999.90;999.90;;;16.40;99.90;;;;;;5075511;28;20036;-71
2023/08/01 04:25:07;;;;;;;1999.90;999.90;;;16.50;99.90;;;;;;5073844;28;20048;-70
2023/08/01 04:27:33;;;;;;;1999.90;999.90;;;16.50;99.90;;;;;;5073951;28;20037;-70
2023/08/01 04:29:58;;;;;;;1999.90;999.90;;;16.50;99.90;;;;;;5075299;28;20037;-70
2023/08/01 04:32:24;;;;;;;1999.90;999.90;;;16.50;99.90;;;;;;5075395;28;20036;-70
2023/08/01 04:34:50;;;;;;;1999.90;999.90;;;16.50;99.90;;;;;;5075228;28;20033;-70
2023/08/01 04:37:15;;;;;;;1999.90;999.90;;;16.50;99.90;;;;;;5075104;28;20040;-70
2023/08/01 04:39:41;;;;;;;1999.90;999.90;;;16.50;99.90;;;;;;5075328;28;20043;-71
2023/08/01 04:42:06;;;;;;;1999.90;999.90;;;16.40;99.90;;;;;;5074664;28;20115;-70
2023/08/01 04:44:32;;;;;;;1999.90;999.90;;;16.50;99.90;;;;;;5074623;28;20698;-70
2023/08/01 04:46:58;;;;;;;1999.90;999.90;;;16.50;99.90;;;;;;5073745;28;20036;-71
2023/08/01 04:49:26;;;;;;;1999.90;999.90;;;16.50;99.90;;;;;;5075255;28;20037;-71
2023/08/01 04:51:52;;;;;;;1999.90;999.90;;;16.50;99.90;;;;;;5074962;28;20037;-70
2023/08/01 04:54:17;;;;;;;1999.90;999.90;;;16.50;99.90;;;;;;5074879;28;20036;-71
2023/08/01 04:56:43;;;;;;;1999.90;999.90;;;16.50;99.90;;;;;;5075136;28;20074;-70
2023/08/01 04:59:08;;;;;;;1999.90;999.90;;;16.50;99.90;;;;;;5074864;28;20075;-71
2023/08/01 05:01:34;;;;;;;1999.90;999.90;;;16.50;99.90;;;;;;5074619;28;20041;-70
2023/08/01 05:03:59;;;;;;;1999.90;999.90;;;16.50;99.90;;;;;;5074755;28;20515;-70
2023/08/01 05:06:25;;;;;;;1999.90;999.90;;;16.40;99.90;;;;;;5074363;28;20045;-70
2023/08/01 05:08:51;;;;;;;1999.90;999.90;;;16.50;99.90;;;;;;5074947;28;20032;-71
2023/08/01 05:11:16;;;;;;;1999.90;999.90;;;16.50;99.90;;;;;;5074669;28;20033;-70
2023/08/01 05:13:42;;;;;;;1999.90;999.90;;;16.50;99.90;;;;;;5074842;28;20036;-71
2023/08/01 05:16:07;;;;;;;1999.90;999.90;;;16.50;99.90;;;;;;5074489;28;20091;-71
2023/08/01 05:18:33;;;;;;;1999.90;999.90;;;16.50;99.90;;;;;;5074619;28;20079;-72
2023/08/01 05:20:58;;;;;;;1999.90;999.90;;;16.40;99.90;;;;;;5074536;28;20037;-76
2023/08/01 05:23:24;;;;;;;1999.90;999.90;;;16.50;99.90;;;;;;5074280;28;20506;-70
2023/08/01 05:25:49;;;;;;;1999.90;999.90;;;16.60;99.90;;;;;;5073954;28;20510;-71
2023/08/01 05:28:15;;;;;;;1999.90;999.90;;;16.60;99.90;;;;;;5072927;28;20033;-70
2023/08/01 05:30:40;;;;;;;1999.90;999.90;;;16.70;99.90;;;;;;5074168;28;20044;-71
2023/08/01 05:33:06;;;;;;;1999.90;999.90;;;16.70;99.90;;;;;;5074070;28;20033;-71
2023/08/01 05:35:31;;;;;;;1999.90;999.90;;;16.70;99.90;;;;;;5074050;28;20037;-72
2023/08/01 05:37:57;;;;;;;1999.90;999.90;;;16.80;99.90;;;;;;5074269;28;20029;-70
2023/08/01 05:40:23;;;;;;;1999.90;999.90;;;16.70;99.90;;;;;;5093878;23;20152;-71
2023/08/01 05:42:48;;;;;;;1999.90;999.90;;;16.80;99.90;;;;;;5052012;28;20522;-69
2023/08/01 05:45:14;;;;;;;1999.90;999.90;;;16.80;99.90;;;;;;5053300;28;20486;-71
2023/08/01 05:47:40;;;;;;;1999.90;999.90;;;16.70;99.90;;;;;;5054310;28;20037;-71
2023/08/01 05:50:07;;;;;;;1999.90;999.90;;;16.70;99.90;;;;;;5054100;28;20022;-71
2023/08/01 05:52:33;;;;;;;1999.90;999.90;;;16.70;99.90;;;;;;5053842;28;20533;-71
2023/08/01 05:54:59;;;;;;;1999.90;999.90;;;16.70;99.90;;;;;;5052235;28;20550;-71
2023/08/01 05:57:25;;;;;;;1999.90;999.90;;;16.70;99.90;;;;;;5053677;28;20120;-71
2023/08/01 05:59:50;;;;;;;1999.90;999.90;;;16.70;99.90;;;;;;5053866;28;20029;-71
2023/08/01 06:02:16;;;;;;;1999.90;999.90;;;16.70;99.90;;;;;;5052152;28;20090;-71
2023/08/01 06:04:42;;;;;;;1999.90;999.90;;;16.70;99.90;;;;;;5052175;28;20059;-71
2023/08/01 06:07:07;;;;;;;1999.90;999.90;;;16.80;99.90;;;;;;5053971;28;20040;-71
2023/08/01 06:09:33;;;;;;;1999.90;999.90;;;16.60;99.90;;;;;;5053553;28;20061;-70
2023/08/01 06:11:58;;;;;;;1999.90;999.90;;;16.70;99.90;;;;;;5048853;28;20038;-69
2023/08/01 06:14:27;;;;;;;1999.90;999.90;;;16.70;99.90;;;;;;5047920;28;20370;-71
2023/08/01 06:16:53;;;;;;;1999.90;999.90;;;16.80;99.90;;;;;;5040292;28;20042;-70
2023/08/01 06:19:18;;;;;;;1999.90;999.90;;;16.70;99.90;;;;;;5035859;28;20730;-71
2023/08/01 06:21:44;;;;;;;1999.90;999.90;;;16.60;99.90;;;;;;5046104;28;20064;-71
2023/08/01 06:24:10;;;;;;;1999.90;999.90;;;16.60;99.90;;;;;;5055290;28;20045;-70
2023/08/01 06:26:36;;;;;;;1999.90;999.90;;;16.60;99.90;;;;;;5043920;28;20042;-78
2023/08/01 06:29:01;;;;;;;1999.90;999.90;;;16.60;99.90;;;;;;5048478;28;20029;-72
2023/08/01 06:31:27;;;;;;;1999.90;999.90;;;16.60;99.90;;;;;;5048791;28;20096;-71
2023/08/01 06:33:52;;;;;;;1999.90;999.90;;;16.60;99.90;;;;;;5046727;28;20037;-71
2023/08/01 06:36:18;;;;;;;1999.90;999.90;;;16.60;99.90;;;;;;5049216;28;20137;-72
2023/08/01 06:38:44;;;;;;;1999.90;999.90;;;16.60;99.90;;;;;;5056382;28;20040;-72
2023/08/01 06:41:09;;;;;;;1999.90;999.90;;;16.50;99.90;;;;;;5055400;28;20049;-71
2023/08/01 06:43:38;;;;;;;1999.90;999.90;;;16.50;99.90;;;;;;5047979;28;20456;-71
2023/08/01 06:46:03;;;;;;;1999.90;999.90;;;16.50;99.90;;;;;;5035142;28;20501;-71
2023/08/01 06:48:29;;;;;;;1999.90;999.90;;;16.40;99.90;;;;;;5044542;28;20046;-71
2023/08/01 06:50:55;;;;;;;1999.90;999.90;;;16.40;99.90;;;;;;5039274;28;20049;-72
2023/08/01 06:53:23;;;;;;;1999.90;999.90;;;16.40;99.90;;;;;;5043983;28;20112;-72
2023/08/01 06:55:51;;;;;;;1999.90;999.90;;;16.40;99.90;;;;;;5035690;28;20644;-72
2023/08/01 06:58:17;;;;;;;1999.90;999.90;;;16.30;99.90;;;;;;5036369;28;20117;-71
2023/08/01 07:00:45;;;;;;;1999.90;999.90;;;16.30;99.90;;;;;;5036129;28;20474;-70
2023/08/01 07:03:11;;;;;;;1999.90;999.90;;;16.40;99.90;;;;;;5043846;28;20049;-71
2023/08/01 07:05:37;;;;;;;1999.90;999.90;;;16.40;99.90;;;;;;5052984;28;20045;-71
2023/08/01 07:08:02;;;;;;;1999.90;999.90;;;16.40;99.90;;;;;;5047776;28;20486;-70
2023/08/01 07:10:28;;;;;;;1999.90;999.90;;;16.30;99.90;;;;;;5036315;28;20034;-70
2023/08/01 07:12:54;;;;;;;1999.90;999.90;;;16.20;99.90;;;;;;5036136;28;20371;-70
2023/08/01 07:15:19;;;;;;;1999.90;999.90;;;16.20;99.90;;;;;;5035371;28;20044;-72
2023/08/01 07:17:45;;;;;;;1999.90;999.90;;;16.20;99.90;;;;;;5039547;28;20091;-72
2023/08/01 07:20:10;;;;;;;1999.90;999.90;;;16.20;99.90;;;;;;5056122;28;20077;-70
2023/08/01 07:22:36;;;;;;;1999.90;999.90;;;16.20;99.90;;;;;;5055897;28;20113;-71
2023/08/01 07:25:02;;;;;;;1999.90;999.90;;;16.10;99.90;;;;;;5055611;28;20038;-69
2023/08/01 07:27:27;;;;;;;1999.90;999.90;;;16.10;99.90;;;;;;5052780;28;20377;-68
2023/08/01 07:29:56;;;;;;;1999.90;999.90;;;16.10;99.90;;;;;;5055225;28;20069;-71
2023/08/01 07:32:21;;;;;;;1999.90;999.90;;;16.20;99.90;;;;;;5055442;28;20029;-69
2023/08/01 07:34:47;;;;;;;1999.90;999.90;;;16.20;99.90;;;;;;5054493;28;20041;-74
2023/08/01 07:37:12;;;;;;;1999.90;999.90;;;16.20;99.90;;;;;;5042211;28;20113;-69
2023/08/01 07:39:38;;;;;;;1999.90;999.90;;;16.20;99.90;;;;;;5035803;28;20432;-69
2023/08/01 07:42:07;;;;;;;1999.90;999.90;;;16.30;99.90;;;;;;5035336;28;20105;-68
2023/08/01 07:44:32;;;;;;;1999.90;999.90;;;16.50;99.90;;;;;;5035519;28;20034;-69
2023/08/01 07:46:58;;;;;;;1999.90;999.90;;;16.60;99.90;;;;;;5036329;28;20041;-68
2023/08/01 07:49:23;;;;;;;1999.90;999.90;;;16.60;99.90;;;;;;5042844;28;20037;-70
2023/08/01 07:51:49;;;;;;;1999.90;999.90;;;16.80;99.90;;;;;;5055193;28;20037;-70
2023/08/01 07:54:14;;;;;;;1999.90;999.90;;;16.80;99.90;;;;;;5055119;28;20034;-69
2023/08/01 07:56:40;;;;;;;1999.90;999.90;;;16.80;99.90;;;;;;5049597;28;20400;-69
2023/08/01 07:59:06;;;;;;;1999.90;999.90;;;16.90;99.90;;;;;;5037868;28;20029;-72
2023/08/01 08:01:31;;;;;;;1999.90;999.90;;;16.90;99.90;;;;;;5054562;28;20378;-70
2023/08/01 08:03:57;;;;;;;1999.90;999.90;;;17.00;99.90;;;;;;5040994;28;20131;-69
2023/08/01 08:06:23;;;;;;;1999.90;999.90;;;17.20;99.90;;;;;;5034962;28;20061;-70
2023/08/01 08:08:49;;;;;;;1999.90;999.90;;;17.40;99.90;;;;;;5035426;28;20033;-69
2023/08/01 08:11:15;;;;;;;1999.90;999.90;;;17.40;99.90;;;;;;5033161;28;20112;-71
2023/08/01 08:13:41;;;;;;;1999.90;999.90;;;17.40;99.90;;;;;;5044248;28;20046;-71
2023/08/01 08:16:07;;;;;;;1999.90;999.90;;;17.50;99.90;;;;;;5034963;28;20041;-69
2023/08/01 08:18:33;;;;;;;1999.90;999.90;;;17.70;99.90;;;;;;5035360;28;20445;-68
2023/08/01 08:20:58;;;;;;;1999.90;999.90;;;17.90;99.90;;;;;;5035394;28;20049;-69
2023/08/01 08:23:26;;;;;;;1999.90;999.90;;;18.00;99.90;;;;;;5034822;28;20049;-70
2023/08/01 08:25:53;;;;;;;1999.90;999.90;;;18.30;99.90;;;;;;5035827;28;20045;-71
2023/08/01 08:28:32;;;;;;;1999.90;999.90;;;18.50;99.90;;;;;;5040396;28;20091;-70
2023/08/01 08:30:58;;;;;;;1999.90;999.90;;;18.70;99.90;;;;;;5048576;28;20040;-71
2023/08/01 08:33:24;;;;;;;1999.90;999.90;;;18.60;99.90;;;;;;5054005;28;20049;-70
2023/08/01 08:35:50;;;;;;;1999.90;999.90;;;18.30;99.90;;;;;;5054129;28;20037;-70
2023/08/01 08:38:19;;;;;;;1999.90;999.90;;;18.20;99.90;;;;;;5037521;28;20041;-71
2023/08/01 08:41:00;;;;;;;1999.90;999.90;;;18.30;99.90;;;;;;5043549;28;20041;-71
2023/08/01 08:43:26;;;;;;;1999.90;999.90;;;18.00;99.90;;;;;;5038296;28;20093;-70
2023/08/01 08:45:59;;;;;;;1999.90;999.90;;;18.00;99.90;;;;;;5039164;28;20843;-71
2023/08/01 08:48:26;;;;;;;1999.90;999.90;;;18.00;99.90;;;;;;5035226;28;20090;-71
2023/08/01 08:50:54;;;;;;;1999.90;999.90;;;17.80;99.90;;;;;;5036642;28;20132;-70
2023/08/01 08:53:21;;;;;;;1999.90;999.90;;;17.70;99.90;;;;;;5034466;28;20038;-71
2023/08/01 08:55:47;;;;;;;1999.90;999.90;;;17.80;99.90;;;;;;5032682;28;20484;-69
2023/08/01 08:58:13;;;;;;;1999.90;999.90;;;17.70;99.90;;;;;;5052822;28;20479;-69
2023/08/01 09:00:39;;;;;;;1999.90;999.90;;;17.70;99.90;;;;;;5043322;28;20056;-69
2023/08/01 09:03:05;;;;;;;1999.90;999.90;;;18.00;99.90;;;;;;5037681;28;20029;-70
2023/08/01 09:05:37;;;;;;;1999.90;999.90;;;18.30;99.90;;;;;;5042481;28;20037;-71
2023/08/01 09:08:17;;;;;;;1999.90;999.90;;;18.40;99.90;;;;;;5032333;28;20101;-71
2023/08/01 09:10:46;;;;;;;1999.90;999.90;;;18.30;99.90;;;;;;5033112;28;20037;-72
2023/08/01 09:13:12;;;;;;;1999.90;999.90;;;18.40;99.90;;;;;;5033671;28;20054;-70
2023/08/01 09:15:41;;;;;;;1999.90;999.90;;;18.30;99.90;;;;;;5042630;28;20199;-71
2023/08/01 09:18:10;;;;;;;1999.90;999.90;;;18.30;99.90;;;;;;5053972;28;20109;-69
2023/08/01 09:20:47;;;;;;;1999.90;999.90;;;18.30;99.90;;;;;;5053699;28;20044;-71
2023/08/01 09:23:13;;;;;;;1999.90;999.90;;;18.20;99.90;;;;;;5052634;28;20053;-71
2023/08/01 09:25:40;;;;;;;1999.90;999.90;;;18.30;99.90;;;;;;5040432;28;20038;-71
2023/08/01 09:28:16;;;;;;;1999.90;999.90;;;18.40;99.90;;;;;;5032855;28;20030;-69
2023/08/01 09:30:57;;;;;;;1999.90;999.90;;;18.50;99.90;;;;;;5033550;28;20041;-69
2023/08/01 09:33:23;;;;;;;1999.90;999.90;;;18.70;99.90;;;;;;5033032;28;20101;-68
2023/08/01 09:35:55;;;;;;;1999.90;999.90;;;18.90;99.90;;;;;;5051606;28;20033;-69
2023/08/01 09:38:20;;;;;;;1999.90;999.90;;;19.00;99.90;;;;;;5053790;28;20026;-69
2023/08/01 09:40:46;;;;;;;1999.90;999.90;;;19.60;99.90;;;;;;5046671;28;20046;-70
2023/08/01 09:43:13;;;;;;;1999.90;999.90;;;19.70;99.90;;;;;;5053548;28;20100;-69
2023/08/01 09:45:53;;;;;;;1999.90;999.90;;;19.80;99.90;;;;;;5039173;28;20505;-69
2023/08/01 09:48:30;;;;;;;1999.90;999.90;;;19.60;99.90;;;;;;5031567;28;20054;-70
2023/08/01 09:51:09;;;;;;;1999.90;999.90;;;19.50;99.90;;;;;;5050750;28;20523;-71
2023/08/01 09:53:36;;;;;;;1999.90;999.90;;;19.40;99.90;;;;;;5056543;28;20057;-70
2023/08/01 09:56:02;;;;;;;1999.90;999.90;;;19.30;99.90;;;;;;5057900;28;20041;-70
2023/08/01 09:58:33;;;;;;;1999.90;999.90;;;19.40;99.90;;;;;;5055630;28;20033;-71
2023/08/01 10:01:01;;;;;;;1999.90;999.90;;;19.40;99.90;;;;;;5056289;28;20034;-71
2023/08/01 10:03:28;;;;;;;1999.90;999.90;;;19.40;99.90;;;;;;5053753;28;20037;-74
2023/08/01 10:05:55;;;;;;;1999.90;999.90;;;19.40;99.90;;;;;;5040909;28;20093;-72
2023/08/01 10:08:22;;;;;;;1999.90;999.90;;;19.30;99.90;;;;;;5036964;28;20030;-71
2023/08/01 10:10:48;;;;;;;1999.90;999.90;;;19.30;99.90;;;;;;5037569;28;20034;-72
2023/08/01 10:13:14;;;;;;;1999.90;999.90;;;19.30;99.90;;;;;;5045307;28;20033;-71
2023/08/01 10:15:41;;;;;;;1999.90;999.90;;;19.60;99.90;;;;;;5050875;28;20501;-73
2023/08/01 10:18:09;;;;;;;1999.90;999.90;;;19.60;99.90;;;;;;5049407;28;20042;-72
2023/08/01 10:20:37;;;;;;;1999.90;999.90;;;19.70;99.90;;;;;;5052360;28;20048;-70
2023/08/01 10:23:03;;;;;;;1999.90;999.90;;;19.80;99.90;;;;;;5056345;28;20057;-72
2023/08/01 10:25:30;;;;;;;1999.90;999.90;;;19.90;99.90;;;;;;5054731;28;20067;-71
2023/08/01 10:28:03;;;;;;;1999.90;999.90;;;20.30;99.90;;;;;;5046557;28;20128;-70
2023/08/01 10:30:29;;;;;;;1999.90;999.90;;;20.40;99.90;;;;;;5037046;28;20089;-68
2023/08/01 10:32:59;;;;;;;1999.90;999.90;;;20.60;99.90;;;;;;5035424;28;20034;-66
2023/08/01 10:35:36;;;;;;;1999.90;999.90;;;21.00;99.90;;;;;;5036565;28;20026;-70
2023/08/01 10:38:05;;;;;;;1999.90;999.90;;;21.30;99.90;;;;;;5036550;28;20034;-69
2023/08/01 10:40:35;;;;;;;1999.90;999.90;;;21.80;99.90;;;;;;5050796;28;20048;-71
2023/08/01 10:43:00;;;;;;;1999.90;999.90;;;22.10;99.90;;;;;;5056332;28;20037;-70
2023/08/01 10:45:28;;;;;;;1999.90;999.90;;;22.20;99.90;;;;;;5044742;28;20042;-68
2023/08/01 10:47:53;;;;;;;1999.90;999.90;;;22.20;99.90;;;;;;5036339;28;20030;-67
2023/08/01 10:50:19;;;;;;;1999.90;999.90;;;22.20;99.90;;;;;;5049556;28;20064;-76
2023/08/01 10:52:46;;;;;;;1999.90;999.90;;;22.20;99.90;;;;;;5057130;28;20599;-74
2023/08/01 10:55:12;;;;;;;1999.90;999.90;;;22.30;99.90;;;;;;5054667;28;20125;-69
2023/08/01 10:57:48;;;;;;;1999.90;999.90;;;22.30;99.90;;;;;;5054868;28;20047;-68
2023/08/01 11:00:17;;;;;;;1999.90;999.90;;;22.70;99.90;;;;;;5046091;28;20066;-75
2023/08/01 11:02:50;;;;;;;1999.90;999.90;;;23.10;99.90;;;;;;5047401;28;20093;-78
2023/08/01 11:05:15;;;;;;;1999.90;999.90;;;23.40;99.90;;;;;;5052848;28;20030;-70
2023/08/01 11:07:41;;;;;;;1999.90;999.90;;;23.20;99.90;;;;;;5046441;28;20034;-69
2023/08/01 11:10:12;;;;;;;1999.90;999.90;;;23.10;99.90;;;;;;5048555;28;20045;-72
2023/08/01 11:12:42;;;;;;;1999.90;999.90;;;23.40;99.90;;;;;;5051080;28;20032;-75
2023/08/01 11:15:13;;;;;;;1999.90;999.90;;;23.20;99.90;;;;;;5059492;28;20033;-73
2023/08/01 11:17:40;;;;;;;1999.90;999.90;;;22.90;99.90;;;;;;5055013;28;20033;-69
2023/08/01 11:20:08;;;;;;;1999.90;999.90;;;23.00;99.90;;;;;;5056838;28;20136;-74
2023/08/01 11:22:34;;;;;;;1999.90;999.90;;;23.50;99.90;;;;;;5052473;28;20045;-71
2023/08/01 11:25:00;;;;;;;1999.90;999.90;;;23.60;99.90;;;;;;5065222;28;20037;-78
2023/08/01 11:27:26;;;;;;;1999.90;999.90;;;23.20;99.90;;;;;;5072105;28;20037;-67
2023/08/01 11:29:53;;;;;;;1999.90;999.90;;;22.20;99.90;;;;;;5052822;28;20044;-68
2023/08/01 11:32:22;;;;;;;1999.90;999.90;;;21.20;99.90;;;;;;5065426;28;20041;-68
2023/08/01 11:34:48;;;;;;;1999.90;999.90;;;19.70;99.90;;;;;;5074932;28;20055;-68
2023/08/01 11:37:17;;;;;;;1999.90;999.90;;;18.10;99.90;;;;;;5061580;28;20042;-68
2023/08/01 11:39:44;;;;;;;1999.90;999.90;;;17.30;99.90;;;;;;5050435;28;20034;-68
2023/08/01 11:42:17;;;;;;;1999.90;999.90;;;16.90;99.90;;;;;;5053675;28;20050;-68
2023/08/01 11:44:43;;;;;;;1999.90;999.90;;;17.00;99.90;;;;;;5055047;28;20577;-68
2023/08/01 11:47:17;;;;;;;1999.90;999.90;;;17.30;99.90;;;;;;5045161;28;20034;-68
2023/08/01 11:49:46;;;;;;;1999.90;999.90;;;17.40;99.90;;;;;;5042650;28;20120;-69
2023/08/01 11:52:25;;;;;;;1999.90;999.90;;;17.90;99.90;;;;;;5051493;28;20099;-68
2023/08/01 11:54:51;;;;;;;1999.90;999.90;;;18.10;99.90;;;;;;5043048;28;20107;-71